Airfield :
LOGIN :

Register | Disclaimer

   EN    FR    IT 

 










Legend :    VFR   Marginal VFR   IFR   Intensive IFR   Very Intensive IFR
Visi :
Ceiling :
>= 8 km
>= 3000ft
5 to 8 km
1000 to 3000 ft
1500m to 5 km
500 to 1000 ft
800 to 1500m
200 to 500 ft
< 800m
< 200 ft
Symbols :   Thunderstorms  Fog  Heavy snow  Heavy precipitations  Wind > 20 kt
SIGMETs :     Misc.  Thunderstorms  Icing  Turbulence  Mountain Waves  Volcanic Ashes






- Airport Elevation : 184 ft
- IATA code : BRU


EBBR - Bruxelles

CURRENT METAR :
  • 211720Z VRB02KT 9999 -RA FEW028 16/14 Q1007 NOSIG

EXPIRED METARs :
  • 211650Z 00000KT 9000 -RA FEW025 16/14 Q1007 NOSIG
  • 211620Z VRB01KT 9999 -RA NSC 16/14 Q1007 NOSIG
  • 211550Z VRB01KT 9999 -RA FEW009 16/14 Q1007 NOSIG
  • 211520Z 32003KT 270V360 9999 -RA FEW009 16/15 Q1007 NOSIG
  • 211450Z 01003KT 9999 -RA FEW009 16/15 Q1008 NOSIG
  • 211420Z 32003KT 280V020 9999 -RA FEW009 16/14 Q1008 NOSIG
  • 211350Z 29003KT 250V320 9999 -RA FEW030 16/14 Q1008 NOSIG
  • 211320Z 28004KT 9999 -RA FEW030 17/14 Q1008 NOSIG

TAF TAF EBBR
Valid from the 21 at 18:00 until the 23 at 00:00 UTC


211710Z 2118/2224 30004KT 9000 -RA SCT020
PROB30
TEMPO 2118/2121 4000 RA SHRA SCT008 BKN014
TEMPO 2121/2208 BKN008
PROB40
TEMPO 2200/2205 2500 BR BKN004
BECMG 2205/2207 24010KT
PROB30
TEMPO 2212/2216 4500 SHRA SCT030CB



MET'MAP, your aeronautical weather chart ! - Copyright ORBIFLY December 2007 - Disclaimer

ORBIFLY MET'MAP TEAM :

Programming & Development : Alexandra Zaïnal
Original concept : Baudouin d'Aumeries
Technical & hardware support : Manuel Goepfert
Assistance : Marc-Olivier Méhu




SOURCES & CREDITS :

   NOAA